Time;durP1;ratioP1;P1;durP2;ratioP2;P2;SDS_P1;SDS_P2;PMS_P1;PMS_P2;Temp;Humidity;BMP_temperature;BMP_pressure;BME280_temperature;BME280_humidity;BME280_pressure;Samples;Min_cycle;Max_cycle;Signal;HPM_P1;HPM_P2
2022/12/30 00:00:09;;;;;;;14.07;10.80;;;;;;;8.46;84.84;99735.77;2936555;79;21554;-85
2022/12/30 00:04:12;;;;;;;19.20;12.07;;;;;;;8.41;84.48;99732.98;2926544;79;21004;-85
2022/12/30 00:34:28;;;;;;;18.35;12.88;;;;;;;7.95;84.97;99759.22;2987375;78;21062;-86
2022/12/30 00:38:29;;;;;;;17.45;13.18;;;;;;;7.91;85.08;99761.27;2990406;77;21618;-86
2022/12/30 00:46:50;;;;;;;20.12;12.95;;;;;;;7.83;85.70;99772.45;2958936;79;21574;-86
2022/12/30 00:59:31;;;;;;;18.73;12.58;;;;;;;7.77;86.54;99776.09;2976482;78;21086;-86
2022/12/30 01:03:32;;;;;;;15.85;12.00;;;;;;;7.76;86.55;99780.53;2958658;78;21511;-85
2022/12/30 01:07:34;;;;;;;16.93;11.93;;;;;;;7.81;86.31;99791.59;2977406;78;21035;-85
2022/12/30 01:11:35;;;;;;;16.17;13.28;;;;;;;7.84;86.26;99796.65;2939357;78;21841;-85
2022/12/30 01:15:36;;;;;;;15.43;11.35;;;;;;;7.82;86.23;99799.91;2963369;78;21050;-86
2022/12/30 01:19:39;;;;;;;16.80;13.10;;;;;;;7.74;86.91;99800.13;2968093;78;21571;-85
2022/12/30 01:23:40;;;;;;;23.07;14.68;;;;;;;7.70;87.07;99818.08;2977472;78;21042;-85
2022/12/30 01:27:41;;;;;;;17.80;13.83;;;;;;;7.58;88.12;99820.70;2953259;78;21027;-85
2022/12/30 01:31:43;;;;;;;15.45;10.58;;;;;;;7.51;88.54;99827.44;2942310;79;21058;-86
2022/12/30 01:35:44;;;;;;;16.52;11.97;;;;;;;7.44;89.29;99831.50;2941068;78;21121;-86
2022/12/30 01:39:45;;;;;;;18.75;12.23;;;;;;;7.33;90.17;99828.34;2946806;79;20990;-85
2022/12/30 01:43:49;;;;;;;14.98;11.22;;;;;;;7.28;90.41;99832.68;2948691;79;20981;-85
2022/12/30 01:47:59;;;;;;;15.98;10.72;;;;;;;7.17;91.41;99837.92;2993157;79;21070;-86
2022/12/30 01:52:00;;;;;;;17.23;11.22;;;;;;;7.05;92.56;99844.11;2944726;78;21002;-85
2022/12/30 01:56:31;;;;;;;20.35;13.65;;;;;;;7.02;93.31;99844.34;2959693;79;21035;-85
2022/12/30 02:00:33;;;;;;;13.65;12.03;;;;;;;7.10;93.42;99853.90;2892175;79;21138;-85
2022/12/30 02:04:34;;;;;;;14.65;10.98;;;;;;;7.17;93.59;99855.12;2920607;78;21525;-85
2022/12/30 02:08:35;;;;;;;14.53;11.05;;;;;;;7.40;92.11;99861.80;2963256;78;21015;-85
2022/12/30 02:12:37;;;;;;;16.80;11.60;;;;;;;7.39;92.61;99864.09;2950366;78;21582;-86
2022/12/30 02:17:17;;;;;;;17.00;11.00;;;;;;;7.51;91.79;99859.20;2932380;78;21554;-86
2022/12/30 02:21:38;;;;;;;15.03;10.70;;;;;;;7.62;91.81;99860.17;2931357;78;20979;-85
2022/12/30 02:26:13;;;;;;;14.25;9.98;;;;;;;7.74;91.01;99857.92;2884161;80;21046;-86
2022/12/30 02:30:23;;;;;;;16.15;11.35;;;;;;;7.81;90.57;99845.05;2908833;80;21510;-86
2022/12/30 02:34:33;;;;;;;12.37;10.50;;;;;;;7.79;90.84;99854.92;2872167;78;21058;-86
2022/12/30 02:38:55;;;;;;;11.18;8.78;;;;;;;7.73;91.20;99861.53;2938690;78;21547;-86
2022/12/30 02:47:29;;;;;;;11.10;8.80;;;;;;;7.71;92.04;99867.42;2903301;80;21069;-86
2022/12/30 02:55:53;;;;;;;10.25;8.53;;;;;;;7.92;91.13;99876.83;2921962;80;21051;-86
2022/12/30 03:04:39;;;;;;;9.45;7.45;;;;;;;8.24;90.28;99885.41;2948930;78;21471;-86
2022/12/30 03:09:04;;;;;;;10.50;9.50;;;;;;;8.38;89.67;99881.66;3006278;78;21010;-86
2022/12/30 03:13:17;;;;;;;13.68;9.65;;;;;;;8.51;89.04;99877.58;2979614;79;20987;-86
2022/12/30 03:17:28;;;;;;;11.43;8.40;;;;;;;8.65;88.29;99884.45;2981837;78;21026;-86
2022/12/30 03:21:34;;;;;;;15.45;7.80;;;;;;;8.76;87.89;99886.70;2956166;78;20995;-86
2022/12/30 03:30:03;;;;;;;11.75;7.65;;;;;;;8.97;87.38;99899.55;2917125;80;21078;-86
2022/12/30 03:34:04;;;;;;;13.85;8.05;;;;;;;9.03;86.13;99902.19;2980043;77;21524;-86
2022/12/30 03:38:09;;;;;;;9.90;6.65;;;;;;;9.03;86.01;99900.86;2959864;78;20996;-86
2022/12/30 03:42:12;;;;;;;8.60;6.08;;;;;;;8.95;85.99;99905.46;2900204;79;21594;-85
2022/12/30 03:46:13;;;;;;;9.60;6.22;;;;;;;8.97;86.47;99917.29;2969519;78;20950;-86
2022/12/30 03:50:14;;;;;;;9.50;6.45;;;;;;;8.96;86.61;99911.13;2958669;78;21027;-85
2022/12/30 03:54:16;;;;;;;7.85;3.50;;;;;;;8.95;86.92;99920.05;2875708;80;21010;-86
2022/12/30 03:58:17;;;;;;;2.95;2.65;;;;;;;8.99;87.94;99922.81;2924483;78;21019;-86
2022/12/30 04:02:19;;;;;;;4.45;2.25;;;;;;;9.10;88.28;99923.76;2939081;78;21313;-86
2022/12/30 04:06:20;;;;;;;3.80;2.17;;;;;;;9.22;87.44;99932.02;2933923;79;21023;-87
2022/12/30 04:10:21;;;;;;;2.12;1.45;;;;;;;9.38;87.05;99939.59;2969889;78;21041;-87
2022/12/30 04:14:23;;;;;;;2.35;1.70;;;;;;;9.42;86.16;99949.45;2964105;79;21033;-87
2022/12/30 04:18:24;;;;;;;4.42;1.65;;;;;;;9.51;85.80;99943.39;2891612;79;21015;-86
2022/12/30 04:22:25;;;;;;;5.78;1.40;;;;;;;9.58;85.37;99949.87;2932364;80;21039;-86
2022/12/30 04:26:27;;;;;;;4.20;1.20;;;;;;;9.60;84.82;99960.38;2873451;79;21002;-87
2022/12/30 04:30:28;;;;;;;2.15;1.47;;;;;;;9.60;84.16;99952.88;2954653;78;21046;-86
2022/12/30 04:34:29;;;;;;;3.95;1.30;;;;;;;9.64;83.71;99959.14;2977525;79;21089;-86
2022/12/30 04:38:31;;;;;;;3.40;1.40;;;;;;;9.68;83.65;99966.38;2959926;78;20974;-86
2022/12/30 04:42:32;;;;;;;4.53;2.55;;;;;;;9.66;83.81;99967.82;2980670;78;20991;-86
2022/12/30 04:46:33;;;;;;;3.83;1.67;;;;;;;9.64;84.11;99976.91;2995466;78;21102;-86
2022/12/30 04:50:35;;;;;;;2.22;1.15;;;;;;;9.58;83.94;99983.56;2961299;78;21027;-86
2022/12/30 04:54:36;;;;;;;4.58;1.47;;;;;;;9.58;83.51;99985.72;2981072;78;21573;-86
2022/12/30 04:58:38;;;;;;;3.75;1.60;;;;;;;9.61;83.70;99986.43;2956272;78;21050;-87
2022/12/30 05:02:39;;;;;;;3.15;1.77;;;;;;;9.64;83.70;99993.66;2935305;79;21034;-87
2022/12/30 05:06:41;;;;;;;1.80;1.70;;;;;;;9.61;83.75;100010.33;2925749;79;21014;-87
2022/12/30 05:10:42;;;;;;;3.08;2.02;;;;;;;9.60;83.98;100021.45;2909595;80;20987;-87
2022/12/30 05:14:43;;;;;;;3.95;1.87;;;;;;;9.57;84.14;100027.84;2970286;79;21074;-85
2022/12/30 05:18:45;;;;;;;3.22;1.22;;;;;;;9.53;84.03;100033.53;2948518;79;21011;-88
2022/12/30 05:22:46;;;;;;;1.82;1.27;;;;;;;9.48;83.56;100033.92;2892403;79;21014;-87
2022/12/30 05:26:47;;;;;;;4.45;2.12;;;;;;;9.46;83.69;100035.86;2963705;79;21113;-87
2022/12/30 05:30:49;;;;;;;16.32;2.02;;;;;;;9.48;83.59;100043.69;2936136;79;21051;-87
2022/12/30 05:34:50;;;;;;;6.33;1.67;;;;;;;9.49;83.55;100050.21;2960509;79;21026;-87
2022/12/30 05:38:51;;;;;;;2.62;1.67;;;;;;;9.40;83.46;100054.92;2939539;78;20986;-87
2022/12/30 05:42:53;;;;;;;13.65;5.35;;;;;;;9.29;83.50;100066.41;2844857;80;20995;-86
2022/12/30 05:46:54;;;;;;;5.15;1.65;;;;;;;9.19;83.66;100074.27;2959326;79;21002;-86
2022/12/30 05:50:55;;;;;;;3.58;1.57;;;;;;;9.10;83.88;100077.16;2966933;78;21387;-86
2022/12/30 05:54:57;;;;;;;2.55;1.55;;;;;;;9.03;84.04;100081.74;2962946;78;21011;-86
2022/12/30 05:58:58;;;;;;;4.58;2.02;;;;;;;8.96;84.35;100084.06;2963261;79;21010;-86
2022/12/30 06:02:59;;;;;;;3.87;2.15;;;;;;;8.98;84.32;100090.91;2819449;78;20974;-86
2022/12/30 06:07:01;;;;;;;2.42;1.20;;;;;;;9.06;83.76;100105.41;2952750;78;21546;-87
2022/12/30 06:11:03;;;;;;;3.20;2.02;;;;;;;9.06;83.37;100114.69;2935449;78;21002;-86
2022/12/30 06:15:05;;;;;;;3.87;2.52;;;;;;;9.00;82.89;100127.45;2953863;78;21532;-87
2022/12/30 06:19:07;;;;;;;3.47;2.25;;;;;;;8.95;82.75;100130.95;2935864;78;21109;-87
2022/12/30 06:23:08;;;;;;;5.55;2.37;;;;;;;8.88;82.94;100137.70;2981982;78;21020;-87
2022/12/30 06:27:09;;;;;;;5.92;2.58;;;;;;;8.85;83.10;100142.76;2960648;78;21038;-86
2022/12/30 06:31:12;;;;;;;2.80;1.40;;;;;;;8.81;82.58;100144.43;2935352;78;21093;-86
2022/12/30 06:35:13;;;;;;;7.87;2.62;;;;;;;8.63;82.42;100142.22;2967053;78;21665;-87
2022/12/30 06:39:15;;;;;;;18.80;6.05;;;;;;;8.55;82.79;100157.88;2931275;79;21029;-87
2022/12/30 06:43:16;;;;;;;18.25;8.00;;;;;;;8.51;82.68;100161.73;2954453;78;21066;-87
2022/12/30 06:47:17;;;;;;;7.65;3.40;;;;;;;8.42;83.51;100158.76;2855997;79;21042;-87
2022/12/30 06:51:19;;;;;;;5.15;2.12;;;;;;;8.25;84.47;100161.36;2960410;80;22291;-88
2022/12/30 06:55:21;;;;;;;4.30;1.95;;;;;;;8.11;85.82;100161.05;2926946;80;21125;-87
2022/12/30 06:59:23;;;;;;;2.83;2.00;;;;;;;8.06;85.90;100157.05;2970408;78;21043;-87
2022/12/30 07:03:25;;;;;;;5.10;1.87;;;;;;;7.94;86.25;100164.09;2922193;80;21525;-87
2022/12/30 07:07:26;;;;;;;3.40;1.45;;;;;;;7.85;85.81;100166.92;2960390;79;20963;-87
2022/12/30 07:11:27;;;;;;;6.30;1.50;;;;;;;7.70;86.11;100168.89;2988065;78;22195;-87
2022/12/30 07:15:29;;;;;;;2.80;1.70;;;;;;;7.57;87.03;100176.37;2960018;78;21018;-87
2022/12/30 07:19:30;;;;;;;5.53;1.95;;;;;;;7.50;86.83;100177.77;2922287;78;21073;-87
2022/12/30 07:23:31;;;;;;;7.97;3.00;;;;;;;7.39;86.42;100182.50;2969307;78;21028;-87
2022/12/30 07:27:33;;;;;;;5.90;1.82;;;;;;;7.27;87.57;100188.64;2972592;78;20955;-87
2022/12/30 07:31:34;;;;;;;7.47;2.42;;;;;;;7.20;87.44;100198.80;2898632;80;21110;-87
2022/12/30 07:35:36;;;;;;;5.72;1.55;;;;;;;7.21;86.56;100205.78;2869056;81;21015;-87
2022/12/30 07:39:38;;;;;;;2.98;1.62;;;;;;;7.18;86.87;100211.29;2905860;80;21502;-87
2022/12/30 07:43:39;;;;;;;3.30;1.77;;;;;;;7.19;86.32;100222.73;2868433;80;21023;-86
2022/12/30 07:47:43;;;;;;;6.70;1.90;;;;;;;7.24;85.90;100235.98;2873960;80;21054;-86
2022/12/30 07:51:44;;;;;;;3.75;1.67;;;;;;;7.28;85.33;100245.44;2870276;79;21515;-87
2022/12/30 07:55:45;;;;;;;8.53;4.22;;;;;;;7.33;85.32;100242.45;2855445;79;20984;-87
2022/12/30 07:59:46;;;;;;;6.05;4.05;;;;;;;7.42;85.75;100251.55;2880399;81;21566;-87
2022/12/30 08:03:48;;;;;;;9.38;3.80;;;;;;;7.49;85.55;100254.16;2970528;78;21042;-87
2022/12/30 08:07:52;;;;;;;3.30;2.92;;;;;;;7.60;85.69;100257.84;2961356;78;21508;-87
2022/12/30 08:11:53;;;;;;;7.60;3.60;;;;;;;7.71;86.10;100269.38;2900815;80;21041;-87
2022/12/30 08:15:54;;;;;;;5.40;3.45;;;;;;;7.84;86.06;100279.95;2866469;81;20976;-87
2022/12/30 08:19:56;;;;;;;5.90;3.72;;;;;;;8.00;86.19;100289.46;2888357;80;21074;-86
2022/12/30 08:23:57;;;;;;;7.70;4.53;;;;;;;8.13;85.78;100300.89;2906118;79;21561;-86
2022/12/30 08:28:01;;;;;;;11.03;4.65;;;;;;;8.18;85.40;100315.14;2870065;80;21433;-87
2022/12/30 08:32:03;;;;;;;10.18;5.70;;;;;;;8.08;85.84;100316.27;2920150;80;21035;-87
2022/12/30 08:36:09;;;;;;;15.63;5.47;;;;;;;8.01;87.03;100318.97;2922069;79;21503;-88
2022/12/30 08:40:12;;;;;;;12.43;6.62;;;;;;;8.08;86.99;100332.63;2926241;79;21019;-87
2022/12/30 08:44:14;;;;;;;11.73;6.58;;;;;;;8.19;87.03;100338.49;2917209;79;21403;-87
2022/12/30 08:48:15;;;;;;;9.43;6.03;;;;;;;8.32;86.82;100342.44;2953047;78;20979;-88
2022/12/30 08:52:17;;;;;;;10.10;4.42;;;;;;;8.52;87.08;100349.00;2945833;78;21550;-88
2022/12/30 08:56:22;;;;;;;10.50;7.08;;;;;;;8.70;85.28;100352.10;2959175;78;20947;-86
2022/12/30 09:00:24;;;;;;;12.77;6.33;;;;;;;8.88;85.33;100354.37;2950718;78;21050;-87
2022/12/30 09:04:25;;;;;;;10.15;5.75;;;;;;;9.04;84.96;100360.70;2968753;78;20928;-87
2022/12/30 09:08:26;;;;;;;7.53;4.75;;;;;;;9.20;84.64;100361.25;2830583;78;21038;-86
2022/12/30 09:12:28;;;;;;;8.98;3.77;;;;;;;9.36;83.85;100360.97;2961624;78;21512;-86
2022/12/30 09:16:30;;;;;;;8.93;4.53;;;;;;;9.50;83.40;100369.20;2837350;80;21546;-88
2022/12/30 09:20:32;;;;;;;7.33;4.35;;;;;;;9.63;82.70;100378.41;2935977;78;20994;-88
2022/12/30 09:24:33;;;;;;;7.03;4.25;;;;;;;9.75;82.45;100372.63;2933770;78;21077;-88
2022/12/30 09:28:35;;;;;;;7.85;4.45;;;;;;;9.88;81.93;100375.17;2955135;79;21024;-88
2022/12/30 09:32:37;;;;;;;7.40;3.60;;;;;;;10.00;81.85;100378.69;2931360;79;20991;-87
2022/12/30 09:36:38;;;;;;;5.47;2.80;;;;;;;10.08;80.17;100372.30;2970166;78;21585;-87
2022/12/30 09:40:51;;;;;;;8.45;4.78;;;;;;;10.13;79.79;100370.62;2922813;80;21074;-87
2022/12/30 09:45:16;;;;;;;7.62;3.35;;;;;;;10.22;80.58;100372.54;2964764;78;21014;-87
2022/12/30 09:49:50;;;;;;;7.92;3.87;;;;;;;10.31;80.36;100376.75;2961677;78;21593;-87
2022/12/30 09:54:05;;;;;;;9.35;4.20;;;;;;;10.37;79.33;100382.44;2911403;78;21014;-86
2022/12/30 09:58:11;;;;;;;6.75;4.92;;;;;;;10.48;78.85;100374.95;2977230;78;21510;-86
2022/12/30 10:02:23;;;;;;;10.05;6.70;;;;;;;10.51;79.26;100368.55;2969254;78;21831;-86
2022/12/30 10:07:02;;;;;;;9.05;5.10;;;;;;;10.57;79.19;100358.74;2958706;78;21030;-85
2022/12/30 10:11:26;;;;;;;14.05;4.85;;;;;;;10.69;79.58;100361.75;2947874;79;21601;-85
2022/12/30 10:15:53;;;;;;;7.05;3.62;;;;;;;10.74;78.03;100356.06;2917604;80;21033;-86
2022/12/30 10:20:19;;;;;;;7.37;3.52;;;;;;;10.81;77.52;100351.92;2926347;79;21002;-86
2022/12/30 10:24:44;;;;;;;8.75;5.12;;;;;;;11.00;76.92;100346.41;2915477;80;21608;-85
2022/12/30 10:29:03;;;;;;;5.65;3.90;;;;;;;11.10;77.07;100341.16;2945995;79;21006;-86
2022/12/30 10:33:11;;;;;;;6.65;3.85;;;;;;;11.20;77.41;100346.09;2997289;78;20994;-85
2022/12/30 10:37:32;;;;;;;9.30;4.40;;;;;;;11.27;77.56;100349.92;2966969;78;21058;-85
2022/12/30 10:41:48;;;;;;;5.05;2.83;;;;;;;11.27;77.20;100347.26;2991849;78;21062;-85
2022/12/30 10:46:13;;;;;;;10.45;5.55;;;;;;;11.29;76.93;100342.64;2977261;78;21485;-85
2022/12/30 10:50:36;;;;;;;10.20;7.85;;;;;;;11.24;76.65;100336.88;2968412;79;21015;-85
2022/12/30 10:54:38;;;;;;;27.37;20.20;;;;;;;11.31;77.08;100331.02;2976456;77;20952;-85
2022/12/30 10:58:42;;;;;;;17.95;11.57;;;;;;;11.26;77.35;100332.73;2965725;78;21089;-85
2022/12/30 11:02:55;;;;;;;12.85;8.25;;;;;;;11.16;77.13;100322.52;2935243;78;21026;-85
2022/12/30 11:07:05;;;;;;;11.55;6.65;;;;;;;11.03;78.06;100324.03;2952421;77;20994;-85
2022/12/30 11:11:08;;;;;;;16.52;9.38;;;;;;;11.03;77.96;100309.39;2952370;79;20990;-85
2022/12/30 11:15:13;;;;;;;13.62;9.53;;;;;;;11.00;78.54;100306.02;2868033;79;20999;-85
2022/12/30 11:19:23;;;;;;;10.98;7.33;;;;;;;10.91;79.73;100301.44;2991661;78;21078;-85
2022/12/30 11:23:30;;;;;;;22.60;14.15;;;;;;;10.92;79.70;100296.98;2962462;78;21010;-85
2022/12/30 11:27:44;;;;;;;33.13;18.17;;;;;;;10.97;79.85;100295.59;3000019;78;20990;-85
2022/12/30 11:31:50;;;;;;;13.93;9.78;;;;;;;10.93;79.90;100291.51;2937880;78;21010;-86
2022/12/30 11:35:52;;;;;;;11.65;7.90;;;;;;;11.05;79.42;100284.31;3000998;77;20991;-85
2022/12/30 11:39:54;;;;;;;14.15;7.35;;;;;;;11.06;79.60;100295.81;2982471;78;20993;-85
2022/12/30 11:44:06;;;;;;;9.50;6.37;;;;;;;11.20;79.94;100291.52;2963951;79;21044;-85
2022/12/30 11:48:18;;;;;;;7.65;5.42;;;;;;;11.32;79.16;100295.42;2974786;78;21047;-85
2022/12/30 11:52:23;;;;;;;9.88;5.25;;;;;;;11.46;78.61;100295.57;3002173;77;21561;-85
2022/12/30 11:56:25;;;;;;;10.55;5.80;;;;;;;11.55;77.17;100298.29;2973190;78;20983;-85
2022/12/30 12:00:38;;;;;;;6.80;3.90;;;;;;;11.63;76.15;100288.81;2931622;79;20998;-86
2022/12/30 12:04:41;;;;;;;7.62;4.03;;;;;;;11.74;76.50;100279.89;2971232;78;21047;-86
2022/12/30 12:09:07;;;;;;;5.00;4.05;;;;;;;11.78;74.93;100284.80;2877332;80;21027;-86
2022/12/30 12:13:19;;;;;;;4.58;3.33;;;;;;;11.83;75.67;100277.73;2977036;78;21053;-85
2022/12/30 12:17:49;;;;;;;9.53;3.15;;;;;;;11.81;74.40;100277.89;2952140;78;20999;-86
2022/12/30 12:21:54;;;;;;;3.40;1.62;;;;;;;11.76;75.62;100276.09;2976091;78;21529;-85
2022/12/30 12:26:25;;;;;;;4.37;2.00;;;;;;;11.71;75.70;100272.99;2908531;80;21022;-86
2022/12/30 12:30:35;;;;;;;1.75;1.25;;;;;;;11.66;74.75;100265.39;2934011;79;21890;-86
2022/12/30 12:34:45;;;;;;;2.55;1.45;;;;;;;11.58;74.40;100275.38;2913957;79;21058;-86
2022/12/30 12:38:54;;;;;;;3.67;1.70;;;;;;;11.47;75.72;100271.48;2880473;80;20995;-87
2022/12/30 12:43:22;;;;;;;5.00;2.72;;;;;;;11.46;75.95;100263.13;2978300;78;20994;-85
2022/12/30 12:47:29;;;;;;;10.53;6.47;;;;;;;11.37;73.44;100263.91;2813531;83;21122;-87
2022/12/30 12:51:48;;;;;;;10.68;6.08;;;;;;;11.36;73.17;100271.08;2853215;82;21046;-87
2022/12/30 12:56:35;;;;;;;8.90;5.70;;;;;;;11.37;73.43;100268.77;2854592;82;21098;-87
2022/12/30 13:01:06;;;;;;;10.50;6.58;;;;;;;11.46;73.35;100261.80;2862315;82;21061;-87
2022/12/30 13:05:36;;;;;;;14.07;7.50;;;;;;;11.53;72.67;100265.61;2774048;84;21089;-87
2022/12/30 13:09:49;;;;;;;8.40;5.08;;;;;;;11.55;72.91;100246.34;2703086;86;21578;-86
2022/12/30 13:14:02;;;;;;;10.48;7.35;;;;;;;11.61;72.18;100237.48;2706916;86;21069;-87
2022/12/30 13:26:34;;;;;;;12.65;5.05;;;;;;;11.43;73.10;100232.77;2653798;87;71175;-91
2022/12/30 13:30:47;;;;;;;5.37;3.50;;;;;;;11.41;73.34;100228.90;2680060;87;21096;-91
2022/12/30 13:35:00;;;;;;;16.15;3.02;;;;;;;11.39;74.21;100224.67;2658973;87;21103;-89
2022/12/30 13:39:22;;;;;;;8.93;4.92;;;;;;;11.29;74.41;100221.95;2727824;82;21653;-90
2022/12/30 13:43:43;;;;;;;61.15;36.17;;;;;;;11.15;74.76;100223.15;2930010;81;21480;-93
2022/12/30 13:47:46;;;;;;;32.48;20.68;;;;;;;10.92;77.71;100221.96;2885332;80;21062;-93
2022/12/30 13:52:04;;;;;;;22.10;11.43;;;;;;;10.73;78.02;100209.84;2937212;79;21096;-93
2022/12/30 13:56:08;;;;;;;21.10;14.25;;;;;;;10.54;78.13;100220.69;2905426;80;21494;-93
2022/12/30 14:00:26;;;;;;;22.45;12.53;;;;;;;10.37;78.48;100223.39;2929947;79;21292;-94
2022/12/30 14:04:32;;;;;;;26.70;20.05;;;;;;;10.33;78.90;100224.63;2890008;80;21059;-94
2022/12/30 14:08:44;;;;;;;23.20;18.48;;;;;;;10.13;82.44;100211.14;2925409;79;21022;-94
2022/12/30 14:13:05;;;;;;;22.82;14.40;;;;;;;9.98;83.42;100214.53;2901606;80;21541;-91
2022/12/30 14:17:19;;;;;;;16.57;10.70;;;;;;;9.76;83.65;100216.26;2913534;79;21006;-93
2022/12/30 14:21:25;;;;;;;15.58;8.45;;;;;;;9.53;84.36;100226.04;2944974;78;20994;-91
2022/12/30 14:25:38;;;;;;;9.43;7.62;;;;;;;9.42;84.31;100234.38;2921131;78;21006;-92
2022/12/30 14:29:40;;;;;;;10.40;6.12;;;;;;;9.33;83.13;100242.22;2891701;80;21046;-94
2022/12/30 14:33:47;;;;;;;9.20;5.47;;;;;;;9.33;81.97;100224.46;2862286;81;21048;-92
2022/12/30 14:37:48;;;;;;;13.20;8.98;;;;;;;9.28;83.11;100233.27;2871962;80;21042;-93
2022/12/30 14:41:50;;;;;;;9.75;7.25;;;;;;;9.09;84.01;100238.67;2883039;82;21039;-94
2022/12/30 14:46:26;;;;;;;8.90;6.65;;;;;;;8.89;83.73;100234.03;2836777;82;21047;-93
2022/12/30 14:50:29;;;;;;;11.85;7.83;;;;;;;8.86;83.46;100227.17;2806096;84;21022;-93
2022/12/30 14:54:58;;;;;;;13.53;9.28;;;;;;;8.76;83.57;100220.86;2800284;83;21059;-93
2022/12/30 14:59:00;;;;;;;8.78;5.65;;;;;;;8.77;82.94;100215.92;2793327;83;21051;-94
2022/12/30 15:03:03;;;;;;;8.75;6.50;;;;;;;8.59;83.78;100216.83;2828728;82;21514;-92
2022/12/30 15:07:06;;;;;;;12.07;7.62;;;;;;;8.40;84.48;100220.32;2809647;82;21042;-91
2022/12/30 15:11:20;;;;;;;11.70;7.33;;;;;;;8.38;84.43;100226.72;2750881;82;20971;-93
2022/12/30 15:15:25;;;;;;;13.05;10.58;;;;;;;8.12;85.38;100226.33;2812915;83;21622;-94
2022/12/30 15:19:27;;;;;;;11.33;7.92;;;;;;;7.88;85.84;100222.81;2843554;82;21599;-94
2022/12/30 15:23:29;;;;;;;20.92;7.97;;;;;;;7.70;86.57;100230.61;2835160;77;21031;-94
2022/12/30 15:27:33;;;;;;;15.98;10.93;;;;;;;7.76;85.75;100226.69;3009774;77;20989;-93
2022/12/30 15:31:35;;;;;;;18.95;9.65;;;;;;;7.80;85.38;100221.53;2956901;78;21483;-92
2022/12/30 15:35:39;;;;;;;14.60;9.03;;;;;;;7.81;85.31;100215.28;2913114;79;20940;-93
2022/12/30 15:39:51;;;;;;;11.35;8.63;;;;;;;7.84;85.24;100220.85;3025591;77;21007;-92
2022/12/30 15:43:59;;;;;;;15.63;9.53;;;;;;;7.86;85.02;100236.16;2980830;77;28884;-93
2022/12/30 15:48:02;;;;;;;25.95;14.83;;;;;;;7.84;84.99;100235.42;2972113;78;21062;-94
2022/12/30 15:52:12;;;;;;;62.40;30.37;;;;;;;7.80;85.27;100231.30;2984901;77;20967;-93
2022/12/30 15:56:17;;;;;;;97.75;52.95;;;;;;;7.63;86.40;100229.83;2977153;78;21561;-94
2022/12/30 16:00:23;;;;;;;103.32;53.63;;;;;;;7.54;86.98;100213.66;2983993;78;21002;-96
2022/12/30 16:04:27;;;;;;;94.97;51.45;;;;;;;7.40;87.20;100208.47;2982012;77;21047;-94
2022/12/30 16:08:35;;;;;;;21.68;13.75;;;;;;;7.38;86.82;100191.86;2903232;80;20982;-96
2022/12/30 16:12:53;;;;;;;9.68;6.58;;;;;;;7.14;88.49;100193.94;2966247;78;21050;-96
2022/12/30 16:16:55;;;;;;;17.12;10.18;;;;;;;6.75;90.77;100209.76;2931395;78;21059;-93
2022/12/30 16:21:04;;;;;;;18.87;12.40;;;;;;;6.63;91.82;100215.39;2967725;77;21105;-95
2022/12/30 16:25:11;;;;;;;23.73;12.80;;;;;;;6.53;92.36;100212.52;2950297;79;21058;-95
2022/12/30 16:29:22;;;;;;;28.62;20.97;;;;;;;6.50;92.87;100213.21;3003175;78;21034;-94
2022/12/30 16:33:23;;;;;;;30.20;17.55;;;;;;;6.43;93.75;100218.88;2990903;78;21003;-93
2022/12/30 16:37:33;;;;;;;21.37;14.60;;;;;;;6.45;93.88;100228.50;2860450;82;21003;-93
2022/12/30 16:41:35;;;;;;;40.60;24.37;;;;;;;6.48;93.79;100224.33;3039672;78;21046;-92
2022/12/30 16:45:37;;;;;;;18.92;13.05;;;;;;;6.41;93.91;100216.81;2897395;81;21035;-93
2022/12/30 16:49:39;;;;;;;18.27;12.18;;;;;;;6.32;93.98;100205.55;2986568;78;21022;-92
2022/12/30 16:53:40;;;;;;;20.57;13.95;;;;;;;6.25;94.57;100199.81;2944751;80;21011;-93
2022/12/30 16:57:42;;;;;;;15.88;10.45;;;;;;;6.39;93.48;100201.54;2892726;79;21571;-93
2022/12/30 17:01:51;;;;;;;14.85;11.28;;;;;;;6.52;93.48;100203.38;2855744;81;21043;-92
2022/12/30 17:05:53;;;;;;;20.62;14.50;;;;;;;6.60;93.32;100194.45;2867466;81;21012;-91
2022/12/30 17:14:14;;;;;;;24.92;14.23;;;;;;;6.54;92.79;100168.45;2930317;79;20987;-92
2022/12/30 17:18:16;;;;;;;27.17;12.23;;;;;;;6.43;95.36;100165.20;3010033;78;20983;-93
2022/12/30 17:22:21;;;;;;;28.17;18.42;;;;;;;6.45;95.54;100159.80;2920204;80;21129;-93
2022/12/30 17:26:24;;;;;;;18.15;11.33;;;;;;;6.45;95.27;100162.44;2998156;77;21066;-93
2022/12/30 17:30:26;;;;;;;15.35;11.65;;;;;;;6.25;96.12;100156.22;2936179;79;21003;-93
2022/12/30 17:34:27;;;;;;;16.50;11.38;;;;;;;6.38;94.34;100147.00;2917958;79;21613;-93
2022/12/30 17:38:29;;;;;;;20.00;11.45;;;;;;;6.23;96.09;100138.77;2995035;77;21037;-93
2022/12/30 17:42:30;;;;;;;18.52;11.80;;;;;;;6.14;97.01;100139.77;2910608;80;21631;-93
2022/12/30 17:46:33;;;;;;;29.32;17.73;;;;;;;6.13;98.43;100139.39;2929204;80;21042;-94
2022/12/30 17:50:35;;;;;;;83.33;44.50;;;;;;;6.29;97.93;100139.70;2924834;77;21014;-93
2022/12/30 17:54:37;;;;;;;131.10;62.55;;;;;;;6.37;97.34;100137.84;2916082;80;21498;-93
2022/12/30 17:58:39;;;;;;;97.90;52.13;;;;;;;6.38;97.34;100128.97;2877577;79;21018;-94
2022/12/30 18:02:42;;;;;;;64.00;37.13;;;;;;;6.45;96.73;100130.73;2953703;78;21034;-92
2022/12/30 18:06:44;;;;;;;127.70;70.72;;;;;;;6.55;96.00;100121.25;2987874;77;21023;-93
2022/12/30 18:11:07;;;;;;;98.97;53.98;;;;;;;6.66;95.69;100109.45;2982950;78;21038;-93
2022/12/30 18:15:09;;;;;;;17.32;11.22;;;;;;;6.73;95.15;100101.95;2896957;80;21063;-93
2022/12/30 18:19:11;;;;;;;68.05;32.35;;;;;;;6.96;93.75;100099.50;2914097;80;21061;-92
2022/12/30 18:23:13;;;;;;;59.10;28.02;;;;;;;7.01;93.32;100105.34;2889114;81;21046;-92
2022/12/30 18:27:16;;;;;;;37.25;16.82;;;;;;;7.11;92.99;100098.93;2884915;80;21621;-92
2022/12/30 18:31:27;;;;;;;41.20;23.87;;;;;;;7.30;92.33;100091.84;2934009;79;21045;-94
2022/12/30 18:35:32;;;;;;;19.02;11.55;;;;;;;7.49;91.64;100098.00;2898452;81;20963;-92
2022/12/30 18:39:34;;;;;;;25.77;14.43;;;;;;;7.54;91.23;100089.24;2958998;79;20959;-92
2022/12/30 18:43:35;;;;;;;13.13;10.68;;;;;;;7.58;91.54;100081.44;2904911;81;21015;-93
2022/12/30 18:47:37;;;;;;;11.85;8.23;;;;;;;7.60;91.67;100057.98;2945737;79;21030;-91
2022/12/30 18:51:41;;;;;;;11.43;8.93;;;;;;;7.62;91.65;100048.13;2903381;80;20991;-91
2022/12/30 18:55:42;;;;;;;9.73;7.35;;;;;;;7.57;91.83;100036.08;2896045;81;21010;-93
2022/12/30 18:59:44;;;;;;;13.10;7.87;;;;;;;7.56;91.54;100031.73;2900288;81;21511;-92
2022/12/30 19:03:46;;;;;;;8.45;6.40;;;;;;;7.55;91.79;100022.11;2894295;81;20997;-92
2022/12/30 19:07:48;;;;;;;6.92;6.17;;;;;;;7.62;91.32;100011.06;2880223;81;21082;-92
2022/12/30 19:11:50;;;;;;;12.13;8.40;;;;;;;7.58;91.44;100015.76;2856164;80;20992;-92
2022/12/30 19:15:51;;;;;;;15.93;12.07;;;;;;;7.57;91.81;100024.16;2897616;81;21077;-90
2022/12/30 19:19:53;;;;;;;11.05;7.08;;;;;;;7.55;91.53;100011.98;2897067;80;21662;-91
2022/12/30 19:23:54;;;;;;;11.93;8.45;;;;;;;7.45;91.12;99997.76;2900253;80;21566;-93
2022/12/30 19:27:57;;;;;;;16.42;7.90;;;;;;;7.66;89.56;99991.34;2925539;81;21063;-90
2022/12/30 19:31:58;;;;;;;11.95;7.97;;;;;;;7.68;89.01;99981.50;2932237;79;21557;-89
2022/12/30 19:36:10;;;;;;;12.90;7.53;;;;;;;7.79;88.90;99965.64;2933080;80;21003;-89
2022/12/30 19:40:12;;;;;;;26.62;10.90;;;;;;;7.73;89.04;99966.11;2928932;81;21517;-89
2022/12/30 19:44:17;;;;;;;27.02;15.38;;;;;;;7.88;87.38;99977.34;2899287;81;21004;-90
2022/12/30 19:48:19;;;;;;;18.92;12.58;;;;;;;7.97;86.55;99990.37;2927347;81;21008;-90
2022/12/30 19:52:20;;;;;;;34.25;11.95;;;;;;;8.02;86.02;100001.95;2897103;81;21000;-89
2022/12/30 19:56:23;;;;;;;15.00;9.70;;;;;;;7.99;86.01;100003.88;2875422;81;21015;-89
2022/12/30 20:00:25;;;;;;;23.30;13.32;;;;;;;8.02;85.32;100008.08;2852937;79;21027;-90
2022/12/30 20:04:28;;;;;;;12.65;8.53;;;;;;;7.93;86.04;100007.45;2931344;81;20991;-91
2022/12/30 20:08:29;;;;;;;10.35;7.70;;;;;;;7.80;86.58;99996.95;2929774;81;21023;-91
2022/12/30 20:12:31;;;;;;;17.20;8.88;;;;;;;7.70;87.11;99992.82;2932387;79;20992;-91
2022/12/30 20:16:37;;;;;;;18.25;12.43;;;;;;;7.63;87.53;100000.37;2933646;79;21024;-91